Map

Track Data

SID SEASON NUMBER BASIN SUBBASIN NAME ISO_TIME NATURE LAT LON WMO_WIND WMO_PRES WMO_AGENCY TRACK_TYPE DIST2LAND LANDFALL IFLAG USA_AGENCY USA_ATCF_ID USA_LAT USA_LON USA_RECORD USA_STATUS USA_WIND USA_PRES USA_SSHS USA_R34_NE USA_R34_SE USA_R34_SW USA_R34_NW USA_R50_NE USA_R50_SE USA_R50_SW USA_R50_NW USA_R64_NE USA_R64_SE USA_R64_SW USA_R64_NW USA_POCI USA_ROCI USA_RMW USA_EYE TOKYO_LAT TOKYO_LON TOKYO_GRADE TOKYO_WIND TOKYO_PRES TOKYO_R50_DIR TOKYO_R50_LONG TOKYO_R50_SHORT TOKYO_R30_DIR TOKYO_R30_LONG TOKYO_R30_SHORT TOKYO_LAND CMA_LAT CMA_LON CMA_CAT CMA_WIND CMA_PRES HKO_LAT HKO_LON HKO_CAT HKO_WIND HKO_PRES NEWDELHI_LAT NEWDELHI_LON NEWDELHI_GRADE NEWDELHI_WIND NEWDELHI_PRES NEWDELHI_CI NEWDELHI_DP NEWDELHI_POCI REUNION_LAT REUNION_LON REUNION_TYPE REUNION_WIND REUNION_PRES REUNION_TNUM REUNION_CI REUNION_RMW REUNION_R34_NE REUNION_R34_SE REUNION_R34_SW REUNION_R34_NW REUNION_R50_NE REUNION_R50_SE REUNION_R50_SW REUNION_R50_NW REUNION_R64_NE REUNION_R64_SE REUNION_R64_SW REUNION_R64_NW BOM_LAT BOM_LON BOM_TYPE BOM_WIND BOM_PRES BOM_TNUM BOM_CI BOM_RMW BOM_R34_NE BOM_R34_SE BOM_R34_SW BOM_R34_NW BOM_R50_NE BOM_R50_SE BOM_R50_SW BOM_R50_NW BOM_R64_NE BOM_R64_SE BOM_R64_SW BOM_R64_NW BOM_ROCI BOM_POCI BOM_EYE BOM_POS_METHOD BOM_PRES_METHOD NADI_LAT NADI_LON NADI_CAT NADI_WIND NADI_PRES WELLINGTON_LAT WELLINGTON_LON WELLINGTON_WIND WELLINGTON_PRES DS824_LAT DS824_LON DS824_STAGE DS824_WIND DS824_PRES TD9636_LAT TD9636_LON TD9636_STAGE TD9636_WIND TD9636_PRES TD9635_LAT TD9635_LON TD9635_WIND TD9635_PRES TD9635_ROCI NEUMANN_LAT NEUMANN_LON NEUMANN_CLASS NEUMANN_WIND NEUMANN_PRES MLC_LAT MLC_LON MLC_CLASS MLC_WIND MLC_PRES USA_GUST BOM_GUST BOM_GUST_PER REUNION_GUST REUNION_GUST_PER USA_SEAHGT USA_SEARAD_NE USA_SEARAD_SE USA_SEARAD_SW USA_SEARAD_NW STORM_SPEED STORM_DIR
2017198N13245 2017 41 EP MM NOT_NAMED 2017-07-16 18:00:00 DS 12.5000 -114.900 25 1010 hurdat_epa main 1273 1267 O_____________ hurdat_epa EP082017 12.5000 -114.900 LO 25 1010 -3 1012 120 50 6 302
2017198N13245 2017 41 EP MM NOT_NAMED 2017-07-16 21:00:00 DS 12.6500 -115.147 main 1262 1261 P_____________ EP082017 12.6500 -115.147 LO 25 1010 -3 1012 120 50 6 302
2017198N13245 2017 41 EP MM NOT_NAMED 2017-07-17 00:00:00 DS 12.8000 -115.400 25 1010 hurdat_epa main 1265 1260 O_____________ hurdat_epa EP082017 12.8000 -115.400 LO 25 1010 -3 1012 120 50 6 301
2017198N13245 2017 41 EP MM NOT_NAMED 2017-07-17 03:00:00 DS 12.9500 -115.658 main 1260 1255 P_____________ EP082017 12.9500 -115.658 LO 25 1009 -3 1011 120 45 6 302
2017198N13245 2017 41 EP MM NOT_NAMED 2017-07-17 06:00:00 TS 13.1000 -115.900 25 1009 hurdat_epa main 1261 1256 O_____________ hurdat_epa EP082017 13.1000 -115.900 TD 25 1009 -1 1011 120 40 5 305
2017198N13245 2017 41 EP MM NOT_NAMED 2017-07-17 09:00:00 TS 13.2499 -116.100 main 1261 1248 P_____________ EP082017 13.2499 -116.100 TD 25 1008 -1 1011 120 40 5 308
2017198N13245 2017 41 EP MM NOT_NAMED 2017-07-17 12:00:00 TS 13.4000 -116.300 25 1008 hurdat_epa main 1253 1249 O_____________ hurdat_epa EP082017 13.4000 -116.300 TD 25 1008 -1 1012 120 40 5 305
2017198N13245 2017 41 EP MM NOT_NAMED 2017-07-17 15:00:00 TS 13.5425 -116.535 main 1255 1245 P_____________ EP082017 13.5425 -116.535 TD 27 1007 -1 1012 120 40 6 302
2017198N13245 2017 41 EP MM NOT_NAMED 2017-07-17 18:00:00 TS 13.7000 -116.800 30 1007 hurdat_epa main 1254 1248 O_____________ hurdat_epa EP082017 13.7000 -116.800 TD 30 1007 -1 1012 120 40 6 303
2017198N13245 2017 41 EP MM NOT_NAMED 2017-07-17 21:00:00 TS 13.8925 -117.093 main 1254 1249 P_____________ EP082017 13.8925 -117.093 TD 30 1007 -1 1011 135 40 7 304
2017198N13245 2017 41 EP MM NOT_NAMED 2017-07-18 00:00:00 TS 14.1000 -117.400 30 1007 hurdat_epa main 1255 1251 O_____________ hurdat_epa EP082017 14.1000 -117.400 TD 30 1007 -1 1011 150 40 7 305
2017198N13245 2017 41 EP MM NOT_NAMED 2017-07-18 03:00:00 TS 14.3075 -117.700 main 1257 1254 P_____________ EP082017 14.3075 -117.700 TD 30 1007 -1 1011 150 40 7 305
2017198N13245 2017 41 EP MM NOT_NAMED 2017-07-18 06:00:00 TS 14.5000 -118.000 30 1007 hurdat_epa main 1261 1260 O_____________ hurdat_epa EP082017 14.5000 -118.000 TD 30 1007 -1 1011 150 40 40 7 302
2017198N13245 2017 41 EP MM NOT_NAMED 2017-07-18 09:00:00 TS 14.6725 -118.300 main 1266 1266 P_____________ EP082017 14.6725 -118.300 TD 30 1007 -1 1010 150 40 7 297
2017198N13245 2017 41 EP MM NOT_NAMED 2017-07-18 12:00:00 TS 14.8000 -118.600 30 1007 hurdat_epa main 1279 1279 O_____________ hurdat_epa EP082017 14.8000 -118.600 TD 30 1007 -1 1010 150 40 40 6 289
2017198N13245 2017 41 EP MM NOT_NAMED 2017-07-18 15:00:00 TS 14.8724 -118.893 main 1294 1294 P_____________ EP082017 14.8724 -118.893 TD 30 1007 -1 1011 155 40 6 280
2017198N13245 2017 41 EP MM NOT_NAMED 2017-07-18 18:00:00 TS 14.9000 -119.200 30 1007 hurdat_epa main 1317 1317 O_____________ hurdat_epa EP082017 14.9000 -119.200 TD 30 1007 -1 1012 160 40 40 6 275
2017198N13245 2017 41 EP MM NOT_NAMED 2017-07-18 21:00:00 TS 14.9225 -119.550 main 1340 1340 P_____________ EP082017 14.9225 -119.550 TD 30 1007 -1 1011 160 40 7 270
2017198N13245 2017 41 EP MM NOT_NAMED 2017-07-19 00:00:00 TS 14.9000 -119.900 30 1007 hurdat_epa main 1365 1365 O_____________ hurdat_epa EP082017 14.9000 -119.900 TD 30 1007 -1 1011 160 40 40 7 260
2017198N13245 2017 41 EP MM NOT_NAMED 2017-07-19 03:00:00 TS 14.8150 -120.215 main 1393 1393 P_____________ EP082017 14.8150 -120.215 TD 30 1007 -1 1011 160 40 6 251
2017198N13245 2017 41 EP MM NOT_NAMED 2017-07-19 06:00:00 TS 14.7000 -120.500 30 1007 hurdat_epa main 1421 1421 O_____________ hurdat_epa EP082017 14.7000 -120.500 TD 30 1007 -1 1011 160 40 40 6 248
2017198N13245 2017 41 EP MM NOT_NAMED 2017-07-19 09:00:00 TS 14.5999 -120.757 main 1450 1450 P_____________ EP082017 14.5999 -120.757 TD 27 1007 -1 1011 160 40 5 248
2017198N13245 2017 41 EP MM NOT_NAMED 2017-07-19 12:00:00 TS 14.5000 -121.000 25 1008 hurdat_epa main 1472 1472 O_____________ hurdat_epa EP082017 14.5000 -121.000 TD 25 1008 -1 1011 160 40 40 5 247
2017198N13245 2017 41 EP MM NOT_NAMED 2017-07-19 15:00:00 TS 14.4000 -121.250 main 1494 1494 P_____________ EP082017 14.4000 -121.250 TD 25 1008 -1 1011 155 40 5 248
2017198N13245 2017 41 EP MM NOT_NAMED 2017-07-19 18:00:00 TS 14.3000 -121.500 25 1009 hurdat_epa main 1523 1523 O_____________ hurdat_epa EP082017 14.3000 -121.500 TD 25 1009 -1 1011 150 40 35 5 248
2017198N13245 2017 41 EP MM NOT_NAMED 2017-07-19 21:00:00 TS 14.2000 -121.750 main 1545 1545 P_____________ EP082017 14.2000 -121.750 TD 25 1009 -1 1011 150 40 5 248
2017198N13245 2017 41 EP MM NOT_NAMED 2017-07-20 00:00:00 TS 14.1000 -122.000 25 1009 hurdat_epa main 1574 1574 O_____________ hurdat_epa EP082017 14.1000 -122.000 TD 25 1009 -1 1011 150 40 35 5 248
2017198N13245 2017 41 EP MM NOT_NAMED 2017-07-20 03:00:00 TS 14.0000 -122.250 main 1597 1597 P_____________ EP082017 14.0000 -122.250 TD 25 1009 -1 1011 150 40 5 248
2017198N13245 2017 41 EP MM NOT_NAMED 2017-07-20 06:00:00 DS 13.9000 -122.500 25 1009 hurdat_epa main 1626 1626 O_____________ hurdat_epa EP082017 13.9000 -122.500 LO 25 1009 -3 1011 150 40 35 5 248
2017198N13245 2017 41 EP MM NOT_NAMED 2017-07-20 09:00:00 DS 13.8074 -122.735 main 1649 1649 P_____________ EP082017 13.8074 -122.735 LO 25 1009 -3 1011 150 40 5 248
2017198N13245 2017 41 EP MM NOT_NAMED 2017-07-20 12:00:00 DS 13.7000 -123.000 25 1009 hurdat_epa main 1678 1678 O_____________ hurdat_epa EP082017 13.7000 -123.000 LO 25 1009 -3 1011 150 40 35 6 248
2017198N13245 2017 41 EP MM NOT_NAMED 2017-07-20 15:00:00 DS 13.5725 -123.327 main 1708 1708 P_____________ EP082017 13.5725 -123.327 LO 25 1009 -3 1011 150 40 7 246
2017198N13245 2017 41 EP MM NOT_NAMED 2017-07-20 18:00:00 DS 13.4000 -123.700 25 1009 hurdat_epa main 1754 1754 O_____________ hurdat_epa EP082017 13.4000 -123.700 LO 25 1009 -3 1011 150 40 35 9 242
2017198N13245 2017 41 EP MM NOT_NAMED 2017-07-20 21:00:00 DS 13.1676 -124.095 main 1799 1799 P_____________ EP082017 13.1676 -124.095 LO 25 1009 -3 1011 150 40 9 237
2017198N13245 2017 41 EP MM NOT_NAMED 2017-07-21 00:00:00 DS 12.9000 -124.500 25 1009 hurdat_epa main 1854 O_____________ hurdat_epa EP082017 12.9000 -124.500 LO 25 1009 -3 1011 150 40 10 236

About IBTrACS Database

This database is a web-friendly format of International Best Track Archive for Climate Stewardship (IBTrACS), a global best track data archive curated by NOAA dating back to 1842.

Updated: 2021-12-06